createdAt,value
2022-08-14T00:02:01.619Z,4.22
2022-08-14T00:04:36.158Z,4.45
2022-08-14T00:07:11.677Z,4.72
2022-08-14T00:12:33.551Z,4.32
2022-08-14T00:15:22.983Z,6.03
2022-08-14T00:17:53.623Z,5.03
2022-08-14T00:20:31.015Z,4.90
2022-08-14T00:23:12.309Z,4.70
2022-08-14T00:25:53.845Z,4.90
2022-08-14T00:28:35.241Z,5.60
2022-08-14T00:31:03.672Z,7.00
2022-08-14T00:33:50.754Z,5.15
2022-08-14T00:36:36.539Z,5.18
2022-08-14T00:39:09.854Z,4.68
2022-08-14T00:41:39.070Z,7.38
2022-08-14T00:44:07.108Z,4.55
2022-08-14T00:46:37.162Z,4.88
2022-08-14T00:49:11.471Z,4.82
2022-08-14T00:51:44.164Z,4.97
2022-08-14T00:54:21.329Z,4.55
2022-08-14T00:56:51.622Z,4.10
2022-08-14T00:59:24.963Z,5.55
2022-08-14T01:01:55.026Z,7.15
2022-08-14T01:04:38.337Z,4.90
2022-08-14T01:07:19.753Z,6.50
2022-08-14T01:09:49.786Z,6.40
2022-08-14T01:12:26.559Z,5.53
2022-08-14T01:14:58.141Z,5.60
2022-08-14T01:17:49.289Z,5.45
2022-08-14T01:20:39.454Z,6.22
2022-08-14T01:23:15.639Z,4.50
2022-08-14T01:25:46.016Z,5.20
2022-08-14T01:28:46.408Z,5.90
2022-08-14T01:31:02.411Z,5.00
2022-08-14T01:33:39.604Z,6.18
2022-08-14T01:36:23.233Z,4.95
2022-08-14T01:41:30.149Z,6.40
2022-08-14T01:44:02.417Z,6.10
2022-08-14T01:46:33.343Z,7.20
2022-08-14T01:49:08.056Z,5.15
2022-08-14T01:51:37.075Z,6.95
2022-08-14T01:54:10.353Z,5.28
2022-08-14T01:56:44.504Z,6.43
2022-08-14T01:59:22.001Z,5.65
2022-08-14T02:01:59.171Z,6.05
2022-08-14T02:04:55.611Z,6.70
2022-08-14T02:07:17.586Z,7.07
2022-08-14T02:10:06.487Z,4.70
2022-08-14T02:12:34.805Z,4.70
2022-08-14T02:15:02.724Z,6.35
2022-08-14T02:17:31.070Z,3.85
2022-08-14T02:19:59.597Z,4.75
2022-08-14T02:22:32.788Z,5.40
2022-08-14T02:25:01.453Z,4.38
2022-08-14T02:28:22.589Z,5.00
2022-08-14T02:30:18.540Z,6.55
2022-08-14T02:32:46.858Z,5.20
2022-08-14T02:35:18.740Z,7.10
2022-08-14T02:37:49.120Z,4.70
2022-08-14T02:40:18.409Z,4.95
2022-08-14T02:42:54.963Z,5.20
2022-08-14T02:45:33.612Z,4.95
2022-08-14T02:48:10.512Z,5.43
2022-08-14T02:50:55.669Z,6.65
2022-08-14T02:53:23.667Z,5.15
2022-08-14T02:55:52.465Z,4.50
2022-08-14T02:58:30.644Z,6.38
2022-08-14T03:00:59.131Z,5.80
2022-08-14T03:03:27.548Z,4.57
2022-08-14T03:05:55.475Z,4.68
2022-08-14T03:08:23.537Z,4.38
2022-08-14T03:10:53.413Z,4.63
2022-08-14T03:13:27.336Z,8.20
2022-08-14T03:15:57.987Z,4.43
2022-08-14T03:18:31.150Z,4.40
2022-08-14T03:21:04.393Z,4.68
2022-08-14T03:26:08.917Z,4.68
2022-08-14T03:28:43.388Z,4.13
2022-08-14T03:31:13.310Z,4.68
2022-08-14T03:33:42.997Z,4.40
2022-08-14T03:37:50.884Z,5.53
2022-08-14T03:39:12.749Z,4.40
2022-08-14T03:41:47.582Z,4.55
2022-08-14T03:45:18.684Z,5.85
2022-08-14T03:47:06.600Z,5.18
2022-08-14T03:49:42.294Z,4.05
2022-08-14T03:52:27.983Z,5.03
2022-08-14T03:55:00.393Z,3.83
2022-08-14T03:57:32.900Z,4.30
2022-08-14T04:00:14.053Z,5.22
2022-08-14T04:02:58.780Z,4.45
2022-08-14T04:05:27.044Z,4.40
2022-08-14T04:08:08.324Z,4.65
2022-08-14T04:10:42.802Z,4.50
2022-08-14T04:13:12.242Z,4.80
2022-08-14T04:15:56.165Z,4.50
2022-08-14T04:18:30.488Z,4.60
2022-08-14T04:20:59.100Z,3.60
2022-08-14T04:23:32.890Z,4.57
2022-08-14T04:26:02.939Z,4.80
2022-08-14T04:29:07.589Z,4.28
2022-08-14T04:31:24.780Z,4.90
2022-08-14T04:33:53.342Z,4.30
2022-08-14T04:36:21.924Z,6.75
2022-08-14T04:39:20.831Z,4.70
2022-08-14T04:42:09.261Z,5.15
2022-08-14T04:44:40.013Z,6.25
2022-08-14T04:47:30.746Z,5.07
2022-08-14T04:49:59.293Z,4.20
2022-08-14T04:52:31.597Z,4.82
2022-08-14T04:55:06.124Z,4.13
2022-08-14T04:57:34.776Z,6.00
2022-08-14T05:00:02.618Z,5.43
2022-08-14T05:02:34.690Z,4.32
2022-08-14T05:05:04.744Z,4.45
2022-08-14T05:07:46.324Z,6.38
2022-08-14T05:10:16.338Z,6.13
2022-08-14T05:13:11.184Z,5.38
2022-08-14T05:15:36.262Z,4.30
2022-08-14T05:18:37.205Z,4.28
2022-08-14T05:21:55.938Z,4.22
2022-08-14T05:23:51.877Z,4.38
2022-08-14T05:26:22.090Z,4.00
2022-08-14T05:28:49.943Z,4.78
2022-08-14T05:31:20.498Z,3.92
2022-08-14T05:33:54.629Z,4.07
2022-08-14T05:36:25.648Z,5.32
2022-08-14T05:38:55.344Z,4.20
2022-08-14T05:41:23.442Z,4.40
2022-08-14T05:44:07.895Z,4.18
2022-08-14T05:46:35.725Z,4.47
2022-08-14T05:49:07.037Z,4.18
2022-08-14T05:51:36.925Z,4.43
2022-08-14T05:54:13.578Z,4.10
2022-08-14T05:56:45.010Z,5.15
2022-08-14T05:59:12.844Z,4.05
2022-08-14T06:01:44.582Z,4.10
2022-08-14T06:04:15.877Z,4.30
2022-08-14T06:06:43.762Z,5.72
2022-08-14T06:09:11.576Z,5.65
2022-08-14T06:11:39.679Z,3.72
2022-08-14T06:14:12.328Z,3.80
2022-08-14T06:16:48.633Z,3.92
2022-08-14T06:19:18.543Z,4.53
2022-08-14T06:21:46.461Z,4.50
2022-08-14T06:24:18.742Z,3.53
2022-08-14T06:26:51.949Z,3.65
2022-08-14T06:29:25.100Z,5.05
2022-08-14T06:31:54.535Z,4.53
2022-08-14T06:35:02.281Z,3.63
2022-08-14T06:37:18.762Z,3.78
2022-08-14T06:39:47.085Z,3.70
2022-08-14T06:42:31.314Z,4.65
2022-08-14T06:45:01.473Z,4.10
2022-08-14T06:47:31.010Z,6.13
2022-08-14T06:50:00.227Z,3.80
2022-08-14T06:52:28.110Z,3.67
2022-08-14T06:54:58.074Z,4.03
2022-08-14T06:57:35.022Z,4.40
2022-08-14T07:00:03.135Z,3.78
2022-08-14T07:02:48.342Z,4.15
2022-08-14T07:05:35.384Z,5.40
2022-08-14T07:08:06.427Z,3.10
2022-08-14T07:10:34.866Z,4.18
2022-08-14T07:13:04.328Z,3.40
2022-08-14T07:15:39.583Z,5.40
2022-08-14T07:18:12.034Z,3.90
2022-08-14T07:20:43.196Z,4.80
2022-08-14T07:23:20.889Z,3.53
2022-08-14T07:25:51.400Z,6.97
2022-08-14T07:28:23.340Z,3.70
2022-08-14T07:30:52.311Z,3.45
2022-08-14T07:33:28.899Z,4.85
2022-08-14T07:36:01.847Z,4.57
2022-08-14T07:38:37.690Z,3.70
2022-08-14T07:41:14.786Z,3.50
2022-08-14T07:43:52.950Z,4.47
2022-08-14T07:46:28.418Z,4.00
2022-08-14T07:48:57.874Z,3.67
2022-08-14T07:51:36.670Z,3.75
2022-08-14T07:54:11.019Z,5.78
2022-08-14T07:56:48.083Z,3.65
2022-08-14T07:59:18.918Z,3.38
2022-08-14T08:01:51.593Z,6.05
2022-08-14T08:04:27.066Z,3.47
2022-08-14T08:06:56.780Z,5.07
2022-08-14T08:09:31.997Z,3.92
2022-08-14T08:12:05.098Z,8.07
2022-08-14T08:14:56.183Z,10.98
2022-08-14T08:17:26.261Z,7.28
2022-08-14T08:20:02.477Z,6.93
2022-08-14T08:22:32.329Z,3.65
2022-08-14T08:25:00.810Z,3.55
2022-08-14T08:27:28.773Z,3.40
2022-08-14T08:30:10.230Z,6.15
2022-08-14T08:32:41.183Z,4.30
2022-08-14T08:35:17.977Z,5.00
2022-08-14T08:37:47.805Z,5.78
2022-08-14T08:40:31.231Z,4.53
2022-08-14T08:43:00.298Z,4.10
2022-08-14T08:45:29.287Z,6.35
2022-08-14T08:47:57.196Z,9.35
2022-08-14T08:50:31.209Z,7.95
2022-08-14T08:53:01.921Z,6.40
2022-08-14T08:55:33.971Z,4.80
2022-08-14T08:58:05.239Z,3.70
2022-08-14T09:00:36.261Z,4.55
2022-08-14T09:03:07.350Z,3.33
2022-08-14T09:05:40.303Z,3.15
2022-08-14T09:08:30.227Z,3.42
2022-08-14T09:11:01.244Z,3.92
2022-08-14T09:13:30.634Z,4.13
2022-08-14T09:16:01.940Z,3.50
2022-08-14T09:18:47.650Z,3.35
2022-08-14T09:21:16.143Z,4.45
2022-08-14T09:24:25.932Z,3.60
2022-08-14T09:26:34.596Z,3.40
2022-08-14T09:29:02.967Z,4.43
2022-08-14T09:31:43.170Z,3.67
2022-08-14T09:34:30.395Z,3.38
2022-08-14T09:37:12.857Z,3.88
2022-08-14T09:39:57.650Z,4.40
2022-08-14T09:42:50.987Z,3.42
2022-08-14T09:45:20.809Z,3.70
2022-08-14T09:47:52.462Z,4.82
2022-08-14T09:50:26.153Z,4.85
2022-08-14T09:52:58.105Z,4.22
2022-08-14T09:55:33.397Z,6.88
2022-08-14T09:58:15.062Z,3.63
2022-08-14T10:00:50.108Z,3.88
2022-08-14T10:03:30.255Z,3.53
2022-08-14T10:06:09.379Z,3.53
2022-08-14T10:08:51.182Z,3.97
2022-08-14T10:13:54.404Z,3.55
2022-08-14T10:16:27.587Z,4.22
2022-08-14T10:19:09.929Z,4.55
2022-08-14T10:21:58.485Z,4.05
2022-08-14T10:24:36.927Z,3.47
2022-08-14T10:27:18.249Z,5.05
2022-08-14T10:29:50.203Z,5.07
2022-08-14T10:32:28.512Z,5.55
2022-08-14T10:35:13.620Z,4.38
2022-08-14T10:37:46.435Z,5.13
2022-08-14T10:40:38.035Z,6.78
2022-08-14T10:43:18.946Z,4.82
2022-08-14T10:45:59.723Z,5.72
2022-08-14T10:48:57.485Z,4.20
2022-08-14T10:51:27.117Z,6.03
2022-08-14T10:54:01.830Z,4.35
2022-08-14T10:56:45.512Z,4.80
2022-08-14T10:59:15.272Z,4.93
2022-08-14T11:01:43.180Z,5.03
2022-08-14T11:04:25.084Z,3.97
2022-08-14T11:06:54.467Z,4.35
2022-08-14T11:09:22.455Z,4.30
2022-08-14T11:11:56.452Z,5.32
2022-08-14T11:14:58.495Z,4.15
2022-08-14T11:17:28.564Z,4.00
2022-08-14T11:20:02.881Z,4.53
2022-08-14T11:22:52.329Z,3.97
2022-08-14T11:25:23.504Z,6.25
2022-08-14T11:27:53.781Z,3.95
2022-08-14T11:30:49.832Z,4.50
2022-08-14T11:33:14.046Z,4.40
2022-08-14T11:35:49.828Z,4.32
2022-08-14T11:38:21.523Z,3.88
2022-08-14T11:40:49.528Z,6.60
2022-08-14T11:43:17.716Z,4.32
2022-08-14T11:45:49.488Z,3.80
2022-08-14T11:49:01.694Z,3.80
2022-08-14T11:51:24.161Z,4.50
2022-08-14T11:53:55.050Z,4.82
2022-08-14T11:56:25.216Z,6.70
2022-08-14T11:58:55.060Z,4.68
2022-08-14T12:01:28.756Z,3.55
2022-08-14T12:04:08.680Z,3.85
2022-08-14T12:06:56.717Z,4.00
2022-08-14T12:09:32.303Z,4.72
2022-08-14T12:12:00.420Z,4.97
2022-08-14T12:14:35.995Z,4.32
2022-08-14T12:17:13.434Z,4.10
2022-08-14T12:19:51.099Z,4.78
2022-08-14T12:22:37.225Z,4.07
2022-08-14T12:25:11.069Z,3.80
2022-08-14T12:27:51.986Z,4.47
2022-08-14T12:30:38.099Z,4.47
2022-08-14T12:33:22.025Z,7.03
2022-08-14T12:35:56.474Z,5.47
2022-08-14T12:38:38.087Z,4.15
2022-08-14T12:41:11.552Z,3.58
2022-08-14T12:43:51.495Z,7.55
2022-08-14T12:46:28.879Z,4.85
2022-08-14T12:49:02.293Z,3.95
2022-08-14T12:51:31.390Z,4.95
2022-08-14T12:54:00.434Z,3.85
2022-08-14T12:56:33.998Z,3.97
2022-08-14T12:59:03.235Z,3.90
2022-08-14T13:01:59.540Z,5.47
2022-08-14T13:04:22.893Z,6.07
2022-08-14T13:06:52.761Z,4.50
2022-08-14T13:09:21.233Z,7.25
2022-08-14T13:11:59.011Z,4.25
2022-08-14T13:14:48.712Z,3.70
2022-08-14T13:17:18.107Z,4.22
2022-08-14T13:19:48.229Z,3.95
2022-08-14T13:22:33.203Z,4.20
2022-08-14T13:25:05.798Z,3.95
2022-08-14T13:27:39.335Z,3.55
2022-08-14T13:30:14.484Z,4.18
2022-08-14T13:32:49.196Z,3.90
2022-08-14T13:35:20.076Z,4.55
2022-08-14T13:37:53.717Z,3.95
2022-08-14T13:40:26.235Z,3.88
2022-08-14T13:42:57.061Z,6.32
2022-08-14T13:45:33.672Z,4.00
2022-08-14T13:48:27.328Z,3.90
2022-08-14T13:51:07.896Z,3.80
2022-08-14T13:54:07.195Z,3.78
2022-08-14T13:56:39.450Z,3.70
2022-08-14T13:59:08.685Z,4.25
2022-08-14T14:01:43.390Z,4.63
2022-08-14T14:04:19.333Z,4.70
2022-08-14T14:06:51.965Z,4.05
2022-08-14T14:09:26.930Z,5.95
2022-08-14T14:12:38.584Z,4.20
2022-08-14T14:14:57.160Z,6.55
2022-08-14T14:17:29.048Z,4.38
2022-08-14T14:19:59.814Z,3.90
2022-08-14T14:23:00.913Z,3.92
2022-08-14T14:25:19.542Z,3.78
2022-08-14T14:27:53.465Z,3.45
2022-08-14T14:30:52.111Z,3.50
2022-08-14T14:33:42.197Z,4.82
2022-08-14T14:36:05.045Z,3.65
2022-08-14T14:38:34.987Z,3.45
2022-08-14T14:41:05.726Z,3.10
2022-08-14T14:43:37.306Z,3.20
2022-08-14T14:46:09.099Z,3.28
2022-08-14T14:48:44.269Z,3.78
2022-08-14T14:51:15.892Z,3.70
2022-08-14T14:53:46.986Z,3.83
2022-08-14T14:56:49.648Z,4.30
2022-08-14T14:59:03.246Z,3.30
2022-08-14T15:01:36.054Z,5.20
2022-08-14T15:04:07.917Z,3.45
2022-08-14T15:06:47.498Z,3.53
2022-08-14T15:09:17.616Z,2.92
2022-08-14T15:11:47.053Z,3.40
2022-08-14T15:14:56.259Z,3.08
2022-08-14T15:17:03.882Z,3.75
2022-08-14T15:19:32.475Z,3.53
2022-08-14T15:22:00.489Z,3.85
2022-08-14T15:24:29.671Z,3.40
2022-08-14T15:27:00.287Z,3.13
2022-08-14T15:29:28.469Z,3.17
2022-08-14T15:31:56.364Z,3.65
2022-08-14T15:34:43.571Z,5.72
2022-08-14T15:37:14.830Z,4.72
2022-08-14T15:39:46.078Z,3.50
2022-08-14T15:42:16.029Z,4.60
2022-08-14T15:44:56.915Z,3.88
2022-08-14T15:49:59.093Z,3.65
2022-08-14T15:52:32.743Z,3.58
2022-08-14T15:55:06.724Z,3.63
2022-08-14T15:57:35.896Z,3.75
2022-08-14T16:00:43.583Z,3.55
2022-08-14T16:03:14.289Z,3.60
2022-08-14T16:05:45.963Z,3.85
2022-08-14T16:08:28.998Z,3.50
2022-08-14T16:11:01.085Z,3.70
2022-08-14T16:13:40.585Z,3.58
2022-08-14T16:16:47.433Z,3.33
2022-08-14T16:19:00.947Z,5.90
2022-08-14T16:21:31.603Z,4.03
2022-08-14T16:24:01.381Z,3.38
2022-08-14T16:26:33.316Z,3.83
2022-08-14T16:29:05.310Z,3.75
2022-08-14T16:31:36.625Z,3.90
2022-08-14T16:36:54.151Z,3.50
2022-08-14T16:39:23.731Z,4.50
2022-08-14T16:41:53.905Z,4.20
2022-08-14T16:44:33.804Z,3.28
2022-08-14T16:47:04.243Z,3.83
2022-08-14T16:49:50.462Z,4.85
2022-08-14T16:52:26.261Z,3.90
2022-08-14T16:55:11.788Z,6.30
2022-08-14T16:57:50.217Z,3.70
2022-08-14T17:00:33.252Z,3.95
2022-08-14T17:03:13.393Z,3.72
2022-08-14T17:05:43.825Z,4.10
2022-08-14T17:08:31.673Z,4.03
2022-08-14T17:11:09.679Z,4.25
2022-08-14T17:13:58.489Z,4.05
2022-08-14T17:16:31.874Z,3.88
2022-08-14T17:19:03.529Z,3.90
2022-08-14T17:21:38.067Z,3.92
2022-08-14T17:27:00.116Z,4.22
2022-08-14T17:29:54.359Z,3.90
2022-08-14T17:32:28.192Z,4.15
2022-08-14T17:35:01.745Z,5.82
2022-08-14T17:37:35.478Z,4.45
2022-08-14T17:40:22.841Z,4.85
2022-08-14T17:43:00.862Z,5.68
2022-08-14T17:45:46.770Z,4.40
2022-08-14T17:49:14.660Z,4.15
2022-08-14T17:51:23.336Z,4.38
2022-08-14T17:54:02.682Z,4.20
2022-08-14T17:56:32.905Z,4.50
2022-08-14T17:59:03.979Z,4.38
2022-08-14T18:01:38.755Z,4.82
2022-08-14T18:04:20.130Z,4.50
2022-08-14T18:06:58.916Z,4.45
2022-08-14T18:09:38.803Z,4.68
2022-08-14T18:12:09.419Z,4.53
2022-08-14T18:15:01.246Z,4.40
2022-08-14T18:17:37.565Z,5.43
2022-08-14T18:22:55.197Z,4.10
2022-08-14T18:25:23.303Z,4.60
2022-08-14T18:27:52.388Z,6.78
2022-08-14T18:30:33.482Z,5.07
2022-08-14T18:33:20.994Z,4.53
2022-08-14T18:35:59.146Z,4.45
2022-08-14T18:38:42.990Z,4.30
2022-08-14T18:41:37.136Z,5.32
2022-08-14T18:44:10.310Z,5.18
2022-08-14T18:47:15.171Z,5.45
2022-08-14T18:50:27.085Z,7.18
2022-08-14T18:52:54.214Z,5.10
2022-08-14T18:55:52.864Z,6.35
2022-08-14T18:58:31.733Z,4.85
2022-08-14T19:01:04.481Z,4.45
2022-08-14T19:03:58.182Z,4.70
2022-08-14T19:06:56.461Z,5.68
2022-08-14T19:09:53.734Z,8.15
2022-08-14T19:13:00.334Z,6.78
2022-08-14T19:15:29.973Z,5.32
2022-08-14T19:18:15.073Z,6.22
2022-08-14T19:20:52.965Z,4.70
2022-08-14T19:23:42.639Z,6.72
2022-08-14T19:26:36.820Z,5.50
2022-08-14T19:29:32.895Z,6.82
2022-08-14T19:32:26.884Z,6.55
2022-08-14T19:35:00.001Z,5.28
2022-08-14T19:37:52.151Z,6.28
2022-08-14T19:40:33.857Z,6.07
2022-08-14T19:43:06.589Z,5.43
2022-08-14T19:45:40.339Z,5.40
2022-08-14T19:48:16.104Z,5.32
2022-08-14T19:50:51.141Z,6.95
2022-08-14T19:53:30.759Z,5.00
2022-08-14T19:56:28.582Z,5.18
2022-08-14T19:59:03.799Z,4.78
2022-08-14T20:01:38.616Z,5.75
2022-08-14T20:04:44.912Z,6.47
2022-08-14T20:07:06.373Z,5.10
2022-08-14T20:11:06.716Z,4.95
2022-08-14T20:12:57.477Z,6.20
2022-08-14T20:15:47.411Z,5.85
2022-08-14T20:18:49.602Z,6.72
2022-08-14T20:21:34.145Z,4.95
2022-08-14T20:24:30.958Z,5.78
2022-08-14T20:27:22.758Z,4.97
2022-08-14T20:30:34.008Z,5.77
2022-08-14T20:33:01.410Z,6.75
2022-08-14T20:35:35.554Z,5.75
2022-08-14T20:38:29.293Z,5.53
2022-08-14T20:41:00.304Z,10.60
2022-08-14T20:43:47.737Z,5.65
2022-08-14T20:46:23.435Z,6.13
2022-08-14T20:49:10.848Z,6.28
2022-08-14T20:51:54.856Z,7.22
2022-08-14T20:54:36.325Z,7.57
2022-08-14T20:57:23.667Z,7.03
2022-08-14T20:59:56.680Z,5.80
2022-08-14T21:02:50.217Z,6.50
2022-08-14T21:05:22.113Z,6.15
2022-08-14T21:08:09.910Z,6.93
2022-08-14T21:10:50.081Z,6.97
2022-08-14T21:14:18.688Z,6.05
2022-08-14T21:16:34.461Z,6.43
2022-08-14T21:19:00.026Z,6.50
2022-08-14T21:21:41.221Z,8.25
2022-08-14T21:24:38.882Z,6.05
2022-08-14T21:27:13.199Z,8.93
2022-08-14T21:29:54.221Z,6.43
2022-08-14T21:32:50.386Z,7.18
2022-08-14T21:35:46.857Z,8.30
2022-08-14T21:38:35.613Z,6.65
2022-08-14T21:41:43.000Z,6.43
2022-08-14T21:44:36.165Z,8.07
2022-08-14T21:50:38.749Z,6.57
2022-08-14T21:53:18.118Z,7.35
2022-08-14T21:55:53.604Z,6.95
2022-08-14T21:58:53.211Z,7.10
2022-08-14T22:01:21.912Z,7.47
2022-08-14T22:04:33.047Z,7.43
2022-08-14T22:06:53.688Z,7.15
2022-08-14T22:09:36.265Z,9.48
2022-08-14T22:12:58.547Z,7.68
2022-08-14T22:15:21.981Z,6.97
2022-08-14T22:17:59.136Z,7.28
2022-08-14T22:20:32.501Z,7.60
2022-08-14T22:23:05.564Z,6.68
2022-08-14T22:25:41.068Z,7.72
2022-08-14T22:28:12.983Z,7.18
2022-08-14T22:30:41.630Z,10.88
2022-08-14T22:33:13.528Z,8.65
2022-08-14T22:35:44.125Z,7.35
2022-08-14T22:38:35.872Z,7.15
2022-08-14T22:41:32.560Z,7.47
2022-08-14T22:43:53.686Z,8.40
2022-08-14T22:46:23.625Z,9.15
2022-08-14T22:48:52.394Z,8.27
2022-08-14T22:51:23.767Z,7.40
2022-08-14T22:53:54.439Z,8.07
2022-08-14T22:56:29.145Z,7.80
2022-08-14T22:58:59.272Z,9.50
2022-08-14T23:01:56.532Z,8.23
2022-08-14T23:04:34.741Z,7.50
2022-08-14T23:07:22.189Z,7.53
2022-08-14T23:12:29.461Z,7.82
2022-08-14T23:14:59.253Z,7.47
2022-08-14T23:17:39.505Z,8.38
2022-08-14T23:20:19.269Z,8.57
2022-08-14T23:22:51.531Z,8.45
2022-08-14T23:25:57.633Z,8.52
2022-08-14T23:28:34.640Z,8.23
2022-08-14T23:30:58.978Z,6.82
2022-08-14T23:33:28.702Z,8.55
2022-08-14T23:35:59.312Z,8.88
2022-08-14T23:38:30.847Z,8.45
2022-08-14T23:41:00.994Z,7.80
2022-08-14T23:43:32.430Z,8.07
2022-08-14T23:46:01.113Z,12.55
2022-08-14T23:48:46.477Z,7.07
2022-08-14T23:51:17.168Z,8.25
2022-08-14T23:53:51.430Z,8.77
2022-08-14T23:56:31.656Z,7.50
2022-08-14T23:59:02.656Z,9.80
